Terminal Aerodrome Forecast
Issued by NWS

Home | Current Version | Previous Version | Text Only | Print | Product List | Glossary On
Versions: 1 2 3 4 5 6 7 8 9 10 11 12 13 14 15 16 17 18 19 20 21 22 23 24 25 26 27 28 29 30 31 32 33 34
000
FTUS45 KBOU 280529
TAFBJC
TAF
KBJC 280529Z 2806/2906 25007KT P6SM SCT110 BKN150
     FM281500 33005KT P6SM SCT200
     FM281800 36010KT P6SM FEW080
     FM282100 02011KT P6SM SCT080 BKN150
     FM290100 30006KT P6SM FEW090 BKN150
     FM290300 27005KT P6SM SCT200=

USA.gov is the U.S. government's official web portal to all federal, state and local government web resources and services.